Time;durP1;ratioP1;P1;durP2;ratioP2;P2;SDS_P1;SDS_P2;PMS_P1;PMS_P2;Temp;Humidity;BMP_temperature;BMP_pressure;BME280_temperature;BME280_humidity;BME280_pressure;Samples;Min_cycle;Max_cycle;Signal;HPM_P1;HPM_P2
2022/10/17 00:01:50;;;;;;;;;;;;;;;13.16;100.00;97022.25;5093204;28;19984;-75
2022/10/17 00:04:16;;;;;;;;;;;;;;;13.18;100.00;97037.84;5093404;28;19952;-75
2022/10/17 00:06:42;;;;;;;;;;;;;;;13.17;100.00;97030.97;5093269;28;20019;-75
2022/10/17 00:09:08;;;;;;;;;;;;;;;13.16;100.00;97027.53;5093398;28;20405;-75
2022/10/17 00:11:34;;;;;;;;;;;;;;;13.14;100.00;97026.94;5093234;28;19964;-75
2022/10/17 00:14:00;;;;;;;;;;;;;;;13.11;100.00;97032.66;5092489;28;19953;-75
2022/10/17 00:16:28;;;;;;;;;;;;;;;13.11;100.00;97035.28;5093183;28;19960;-75
2022/10/17 00:18:55;;;;;;;;;;;;;;;13.11;100.00;97037.13;5092842;28;19983;-75
2022/10/17 00:21:21;;;;;;;;;;;;;;;13.09;100.00;97041.81;5094941;28;19952;-75
2022/10/17 00:23:47;;;;;;;;;;;;;;;13.08;100.00;97046.28;5097067;28;19955;-75
2022/10/17 00:26:14;;;;;;;;;;;;;;;13.04;100.00;97046.91;5096729;28;19969;-75
2022/10/17 00:28:39;;;;;;;;;;;;;;;12.99;100.00;97042.28;5096658;28;20330;-75
2022/10/17 00:31:06;;;;;;;;;;;;;;;12.95;100.00;97049.81;5096667;28;19951;-74
2022/10/17 00:33:33;;;;;;;;;;;;;;;12.94;100.00;97055.31;5096712;28;19962;-75
2022/10/17 00:36:09;;;;;;;;;;;;;;;12.93;100.00;97051.88;5096452;28;19949;-75
2022/10/17 00:38:36;;;;;;;;;;;;;;;12.94;100.00;97047.44;5096449;28;19955;-74
2022/10/17 00:41:02;;;;;;;;;;;;;;;12.90;100.00;97054.94;5096516;28;19947;-74
2022/10/17 00:43:28;;;;;;;;;;;;;;;12.88;100.00;97054.34;5096497;28;19958;-75
2022/10/17 00:45:55;;;;;;;;;;;;;;;12.86;100.00;97048.50;5096298;28;20452;-75
2022/10/17 00:48:22;;;;;;;;;;;;;;;12.87;100.00;97059.81;5096382;28;19961;-75
2022/10/17 00:50:48;;;;;;;;;;;;;;;12.88;100.00;97061.47;5096484;28;19953;-75
2022/10/17 00:53:15;;;;;;;;;;;;;;;12.88;100.00;97053.56;5096181;28;19948;-74
2022/10/17 00:55:43;;;;;;;;;;;;;;;12.88;100.00;97050.94;5095187;28;20489;-75
2022/10/17 00:58:09;;;;;;;;;;;;;;;12.86;100.00;97047.69;5096271;28;19953;-74
2022/10/17 01:00:35;;;;;;;;;;;;;;;12.85;100.00;97041.63;5096525;28;19960;-75
2022/10/17 01:03:02;;;;;;;;;;;;;;;12.85;100.00;97048.72;5095826;28;20363;-74
2022/10/17 01:05:28;;;;;;;;;;;;;;;12.84;100.00;97055.00;5096047;28;19967;-74
2022/10/17 01:07:54;;;;;;;;;;;;;;;12.83;100.00;97058.66;5095736;28;20448;-75
2022/10/17 01:10:21;;;;;;;;;;;;;;;12.80;100.00;97058.06;5096062;28;19948;-74
2022/10/17 01:13:13;;;;;;;;;;;;;;;12.80;100.00;97057.25;5095995;28;19967;-74
2022/10/17 01:15:45;;;;;;;;;;;;;;;12.77;100.00;97055.06;5092078;28;19959;-74
2022/10/17 01:18:20;;;;;;;;;;;;;;;12.77;100.00;97052.44;5095588;28;20007;-74
2022/10/17 01:20:55;;;;;;;;;;;;;;;12.76;100.00;97053.44;5095581;28;19958;-74
2022/10/17 01:23:39;;;;;;;;;;;;;;;12.75;100.00;97057.91;5095299;28;19959;-74
2022/10/17 01:26:08;;;;;;;;;;;;;;;12.75;100.00;97051.84;5095410;28;19963;-75
2022/10/17 01:28:40;;;;;;;;;;;;;;;12.73;100.00;97057.31;5095862;28;20404;-74
2022/10/17 01:31:06;;;;;;;;;;;;;;;12.70;100.00;97055.13;5095310;28;20456;-74
2022/10/17 01:33:51;;;;;;;;;;;;;;;12.68;100.00;97049.28;5093877;28;19958;-75
2022/10/17 01:36:23;;;;;;;;;;;;;;;12.67;100.00;97049.50;5081737;28;20022;-75
2022/10/17 01:38:52;;;;;;;;;;;;;;;12.66;100.00;97058.41;5095573;28;19956;-75
2022/10/17 01:41:25;;;;;;;;;;;;;;;12.63;100.00;97049.13;5095169;28;19948;-75
2022/10/17 01:43:58;;;;;;;;;;;;;;;12.62;100.00;97049.31;5095605;28;19958;-75
2022/10/17 01:46:27;;;;;;;;;;;;;;;12.62;100.00;97041.44;5095083;28;19982;-75
2022/10/17 01:48:55;;;;;;;;;;;;;;;12.64;100.00;97048.13;5095464;28;19957;-75
2022/10/17 01:51:24;;;;;;;;;;;;;;;12.61;100.00;97040.63;5095333;28;19958;-75
2022/10/17 01:53:59;;;;;;;;;;;;;;;12.59;100.00;97037.41;5094928;28;19955;-75
2022/10/17 01:56:27;;;;;;;;;;;;;;;12.55;100.00;97033.59;5094871;28;20423;-75
2022/10/17 01:58:57;;;;;;;;;;;;;;;12.53;100.00;97030.38;5086266;28;20036;-75
2022/10/17 02:01:25;;;;;;;;;;;;;;;12.49;100.00;97032.63;5094693;28;19956;-75
2022/10/17 02:03:52;;;;;;;;;;;;;;;12.48;100.00;97033.66;5094645;28;19956;-75
2022/10/17 02:06:18;;;;;;;;;;;;;;;12.46;100.00;97035.69;5094848;28;19961;-75
2022/10/17 02:08:45;;;;;;;;;;;;;;;12.46;100.00;97035.69;5094845;28;19997;-75
2022/10/17 02:11:16;;;;;;;;;;;;;;;12.46;100.00;97040.97;5095008;28;19946;-75
2022/10/17 02:14:20;;;;;;;;;;;;;;;12.47;100.00;97037.28;5094674;28;19967;-75
2022/10/17 02:16:55;;;;;;;;;;;;;;;12.48;100.00;97031.03;5032376;28;19950;-75
2022/10/17 02:19:21;;;;;;;;;;;;;;;12.47;100.00;97034.66;5031983;28;19977;-76
2022/10/17 02:21:52;;;;;;;;;;;;;;;12.46;100.00;97037.53;5056678;28;20318;-75
2022/10/17 02:24:30;;;;;;;;;;;;;;;12.43;100.00;97038.78;5094893;28;19953;-75
2022/10/17 02:27:02;;;;;;;;;;;;;;;12.40;100.00;97036.56;5094500;28;19960;-75
2022/10/17 02:29:32;;;;;;;;;;;;;;;12.38;100.00;97035.97;5078818;28;19949;-75
2022/10/17 02:32:04;;;;;;;;;;;;;;;12.34;100.00;97040.84;5094902;28;19951;-75
2022/10/17 02:34:39;;;;;;;;;;;;;;;12.31;100.00;97041.28;5094365;28;19960;-75
2022/10/17 02:37:07;;;;;;;;;;;;;;;12.30;100.00;97044.13;5085352;28;19968;-75
2022/10/17 02:39:33;;;;;;;;;;;;;;;12.28;100.00;97054.03;5094093;28;19957;-75
2022/10/17 02:42:02;;;;;;;;;;;;;;;12.26;100.00;97056.06;5094127;28;19963;-75
2022/10/17 02:44:29;;;;;;;;;;;;;;;12.22;100.00;97047.84;5094069;28;19951;-75
2022/10/17 02:47:00;;;;;;;;;;;;;;;12.22;100.00;97055.72;5094672;28;19968;-75
2022/10/17 02:49:32;;;;;;;;;;;;;;;12.19;100.00;97050.88;5094150;28;19946;-75
2022/10/17 02:52:05;;;;;;;;;;;;;;;12.15;100.00;97052.31;5093944;28;19962;-75
2022/10/17 02:54:50;;;;;;;;;;;;;;;12.12;100.00;97052.75;5094189;28;20406;-75
2022/10/17 02:57:20;;;;;;;;;;;;;;;12.09;100.00;97053.97;5093783;28;19948;-75
2022/10/17 02:59:47;;;;;;;;;;;;;;;12.07;100.00;97052.56;5094509;28;20295;-75
2022/10/17 03:02:13;;;;;;;;;;;;;;;12.05;100.00;97059.84;5094081;28;19964;-75
2022/10/17 03:04:45;;;;;;;;;;;;;;;12.04;100.00;97071.41;5094031;28;20318;-75
2022/10/17 03:07:11;;;;;;;;;;;;;;;12.00;100.00;97071.00;5083353;28;20442;-75
2022/10/17 03:09:37;;;;;;;;;;;;;;;12.00;100.00;97073.66;5093923;28;20335;-75
2022/10/17 03:12:04;;;;;;;;;;;;;;;11.99;100.00;97077.31;5094013;28;19959;-75
2022/10/17 03:14:30;;;;;;;;;;;;;;;11.93;100.00;97071.06;5093674;28;19955;-75
2022/10/17 03:16:56;;;;;;;;;;;;;;;11.90;100.00;97068.03;5093803;28;20404;-75
2022/10/17 03:19:21;;;;;;;;;;;;;;;11.87;100.00;97071.88;5093374;28;20024;-75
2022/10/17 03:21:47;;;;;;;;;;;;;;;11.85;100.00;97068.63;5093665;28;20002;-75
2022/10/17 03:24:13;;;;;;;;;;;;;;;11.84;100.00;97067.00;5093449;28;19957;-75
2022/10/17 03:26:39;;;;;;;;;;;;;;;11.83;100.00;97069.88;5093477;28;19976;-75
2022/10/17 03:29:05;;;;;;;;;;;;;;;11.83;100.00;97069.88;5093708;28;19966;-75
2022/10/17 03:31:31;;;;;;;;;;;;;;;11.84;100.00;97072.28;5093536;28;20011;-76
2022/10/17 03:33:57;;;;;;;;;;;;;;;11.85;100.00;97078.34;5093659;28;20027;-75
2022/10/17 03:36:22;;;;;;;;;;;;;;;11.87;100.00;97089.47;5093661;28;19994;-75
2022/10/17 03:38:51;;;;;;;;;;;;;;;11.87;100.00;97084.22;5093756;28;20049;-75
2022/10/17 03:41:17;;;;;;;;;;;;;;;11.87;100.00;97079.75;5093668;28;20437;-75
2022/10/17 03:43:43;;;;;;;;;;;;;;;11.89;100.00;97084.84;5093407;28;19968;-76
2022/10/17 03:46:09;;;;;;;;;;;;;;;11.89;100.00;97074.31;5093538;28;20013;-75
2022/10/17 03:48:35;;;;;;;;;;;;;;;11.86;100.00;97074.69;5093516;28;20025;-75
2022/10/17 03:51:06;;;;;;;;;;;;;;;11.83;100.00;97078.56;5093633;28;19961;-75
2022/10/17 03:53:32;;;;;;;;;;;;;;;11.79;100.00;97087.88;5093612;28;20316;-75
2022/10/17 03:56:14;;;;;;;;;;;;;;;11.77;100.00;97088.06;5094597;28;19961;-75
2022/10/17 03:58:40;;;;;;;;;;;;;;;11.76;100.00;97091.72;5096359;28;19956;-75
2022/10/17 04:01:07;;;;;;;;;;;;;;;11.77;100.00;97105.66;5097118;28;19956;-76
2022/10/17 04:03:33;;;;;;;;;;;;;;;11.78;100.00;97104.66;5097307;28;19965;-75
2022/10/17 04:06:00;;;;;;;;;;;;;;;11.78;100.00;97105.47;5097091;28;20470;-76
2022/10/17 04:08:26;;;;;;;;;;;;;;;11.78;100.00;97113.34;5097429;28;20333;-76
2022/10/17 04:10:52;;;;;;;;;;;;;;;11.77;100.00;97109.09;5097108;28;19973;-76
2022/10/17 04:13:17;;;;;;;;;;;;;;;11.76;100.00;97110.13;5096910;28;20303;-75
2022/10/17 04:15:56;;;;;;;;;;;;;;;11.74;100.00;97120.03;5097239;28;19975;-75
2022/10/17 04:18:22;;;;;;;;;;;;;;;11.71;100.00;97112.56;5096391;28;19974;-75
2022/10/17 04:20:48;;;;;;;;;;;;;;;11.68;100.00;97113.00;5096766;28;19961;-75
2022/10/17 04:23:14;;;;;;;;;;;;;;;11.65;100.00;97115.22;5096647;28;20320;-75
2022/10/17 04:25:40;;;;;;;;;;;;;;;11.60;100.00;97107.97;5096824;28;19976;-75
2022/10/17 04:28:06;;;;;;;;;;;;;;;11.55;100.00;97108.59;5096682;28;20094;-75
2022/10/17 04:30:32;;;;;;;;;;;;;;;11.54;100.00;97119.28;5096181;28;19944;-75
2022/10/17 04:32:58;;;;;;;;;;;;;;;11.54;100.00;97119.28;5096632;28;20003;-75
2022/10/17 04:35:24;;;;;;;;;;;;;;;11.54;100.00;97127.19;5096761;28;20009;-75
2022/10/17 04:37:49;;;;;;;;;;;;;;;11.53;100.00;97122.94;5096598;28;19953;-75
2022/10/17 04:40:15;;;;;;;;;;;;;;;11.52;100.00;97121.31;5096480;28;20017;-75
2022/10/17 04:42:41;;;;;;;;;;;;;;;11.51;100.00;97120.53;5096457;28;20000;-75
2022/10/17 04:45:07;;;;;;;;;;;;;;;11.52;100.00;97123.94;5096311;28;19953;-75
2022/10/17 04:47:33;;;;;;;;;;;;;;;11.54;100.00;97122.72;5096315;28;20348;-75
2022/10/17 04:49:59;;;;;;;;;;;;;;;11.54;100.00;97117.47;5096177;28;20043;-75
2022/10/17 04:52:25;;;;;;;;;;;;;;;11.54;100.00;97130.59;5096310;28;19975;-76
2022/10/17 04:54:51;;;;;;;;;;;;;;;11.55;100.00;97129.59;5096390;28;19952;-75
2022/10/17 04:57:17;;;;;;;;;;;;;;;11.57;100.00;97132.03;5096245;28;19958;-75
2022/10/17 04:59:43;;;;;;;;;;;;;;;11.56;100.00;97120.69;5096256;28;20322;-76
2022/10/17 05:02:09;;;;;;;;;;;;;;;11.54;100.00;97125.34;5096194;28;19956;-75
2022/10/17 05:04:35;;;;;;;;;;;;;;;11.54;100.00;97122.72;5096073;28;19964;-76
2022/10/17 05:07:01;;;;;;;;;;;;;;;11.54;100.00;97117.47;5095729;28;20458;-76
2022/10/17 05:09:27;;;;;;;;;;;;;;;11.51;100.00;97117.91;5095959;28;19949;-76
2022/10/17 05:11:52;;;;;;;;;;;;;;;11.49;100.00;97117.28;5095815;28;20418;-76
2022/10/17 05:14:18;;;;;;;;;;;;;;;11.48;100.00;97118.28;5096013;28;19954;-76
2022/10/17 05:16:44;;;;;;;;;;;;;;;11.47;100.00;97114.06;5096582;28;20320;-76
2022/10/17 05:19:10;;;;;;;;;;;;;;;11.46;100.00;97120.31;5095812;28;19986;-76
2022/10/17 05:21:36;;;;;;;;;;;;;;;11.46;100.00;97117.69;5095583;28;20327;-76
2022/10/17 05:24:10;;;;;;;;;;;;;;;11.45;100.00;97117.91;5095621;28;19959;-76
2022/10/17 05:26:36;;;;;;;;;;;;;;;11.45;100.00;97110.03;5095366;28;19973;-76
2022/10/17 05:29:02;;;;;;;;;;;;;;;11.43;100.00;97105.00;5095541;28;19956;-76
2022/10/17 05:31:29;;;;;;;;;;;;;;;11.41;100.00;97116.72;5095607;28;19969;-76
2022/10/17 05:33:55;;;;;;;;;;;;;;;11.39;100.00;97114.28;5095349;28;19962;-75
2022/10/17 05:36:20;;;;;;;;;;;;;;;11.41;100.00;97122.78;5095593;28;19985;-76
2022/10/17 05:38:50;;;;;;;;;;;;;;;11.41;100.00;97130.66;5094726;28;20014;-76
2022/10/17 05:41:16;;;;;;;;;;;;;;;11.41;100.00;97140.34;5095514;28;19953;-76
2022/10/17 05:43:42;;;;;;;;;;;;;;;11.39;100.00;97130.06;5095711;28;19951;-75
2022/10/17 05:46:08;;;;;;;;;;;;;;;11.35;100.00;97132.28;5095797;28;19951;-76
2022/10/17 05:48:34;;;;;;;;;;;;;;;11.32;100.00;97131.91;5095599;28;19960;-76
2022/10/17 05:51:01;;;;;;;;;;;;;;;11.28;100.00;97131.50;5095308;28;19951;-76
2022/10/17 05:53:31;;;;;;;;;;;;;;;11.26;100.00;97128.25;5094842;28;19950;-76
2022/10/17 05:55:58;;;;;;;;;;;;;;;11.24;100.00;97126.84;5094990;28;19949;-75
2022/10/17 05:58:24;;;;;;;;;;;;;;;11.25;100.00;97131.09;5094876;28;20430;-75
2022/10/17 06:00:49;;;;;;;;;;;;;;;11.25;100.00;97133.72;5094711;28;19951;-75
2022/10/17 06:03:15;;;;;;;;;;;;;;;11.24;100.00;97143.41;5093975;28;19956;-75
2022/10/17 06:05:41;;;;;;;;;;;;;;;11.25;100.00;97152.88;5094899;28;19958;-75
2022/10/17 06:08:07;;;;;;;;;;;;;;;11.26;100.00;97151.88;5094478;28;19973;-75
2022/10/17 06:10:33;;;;;;;;;;;;;;;11.27;100.00;97163.19;5094909;28;19985;-75
2022/10/17 06:12:59;;;;;;;;;;;;;;;11.27;100.00;97158.75;5094814;28;19951;-75
2022/10/17 06:15:25;;;;;;;;;;;;;;;11.28;100.00;97159.56;5094559;28;19952;-75
2022/10/17 06:17:50;;;;;;;;;;;;;;;11.28;100.00;97163.00;5094526;28;20352;-75
2022/10/17 06:20:16;;;;;;;;;;;;;;;11.32;100.00;97171.28;5094072;28;20388;-75
2022/10/17 06:22:42;;;;;;;;;;;;;;;11.35;100.00;97168.25;5094553;28;19989;-75
2022/10/17 06:25:08;;;;;;;;;;;;;;;11.38;100.00;97170.44;5094277;28;20470;-75
2022/10/17 06:27:34;;;;;;;;;;;;;;;11.47;100.00;97165.81;5094757;28;19971;-75
2022/10/17 06:30:00;;;;;;;;;;;;;;;11.67;100.00;97171.78;5094483;28;19957;-75
2022/10/17 06:32:26;;;;;;;;;;;;;;;11.90;100.00;97167.91;5094627;28;20450;-75
2022/10/17 06:34:52;;;;;;;;;;;;;;;12.03;99.36;97172.31;5094512;28;19971;-75
2022/10/17 06:37:17;;;;;;;;;;;;;;;12.17;99.08;97185.19;5094113;28;20036;-75
2022/10/17 06:39:43;;;;;;;;;;;;;;;12.38;98.42;97184.06;5094251;28;19955;-75
2022/10/17 06:42:09;;;;;;;;;;;;;;;12.58;97.64;97189.22;5094330;28;19954;-75
2022/10/17 06:44:35;;;;;;;;;;;;;;;12.67;97.04;97195.03;5094336;28;19964;-75
2022/10/17 06:47:01;;;;;;;;;;;;;;;12.78;97.19;97198.81;5093453;28;20422;-76
2022/10/17 06:49:27;;;;;;;;;;;;;;;12.98;97.15;97196.03;5094056;28;19955;-75
2022/10/17 06:51:53;;;;;;;;;;;;;;;13.18;96.65;97199.31;5093813;28;20302;-75
2022/10/17 06:54:19;;;;;;;;;;;;;;;13.42;95.69;97193.44;5094267;28;19959;-75
2022/10/17 06:56:45;;;;;;;;;;;;;;;13.64;95.38;97197.28;5094302;28;19961;-75
2022/10/17 06:59:11;;;;;;;;;;;;;;;13.83;94.49;97195.47;5093972;28;19957;-75
2022/10/17 07:01:37;;;;;;;;;;;;;;;13.99;94.18;97197.53;5093804;28;20046;-75
2022/10/17 07:04:02;;;;;;;;;;;;;;;14.16;93.62;97202.19;5093855;28;19991;-75
2022/10/17 07:06:28;;;;;;;;;;;;;;;14.30;93.65;97203.66;5092699;28;20431;-75
2022/10/17 07:08:55;;;;;;;;;;;;;;;14.44;92.64;97192.91;5094067;28;20471;-75
2022/10/17 07:11:21;;;;;;;;;;;;;;;14.55;93.77;97200.91;5093713;28;19973;-75
2022/10/17 07:13:47;;;;;;;;;;;;;;;14.66;91.58;97199.34;5093995;28;19962;-75
2022/10/17 07:16:14;;;;;;;;;;;;;;;14.76;92.24;97202.22;5094103;28;19952;-75
2022/10/17 07:18:40;;;;;;;;;;;;;;;14.86;92.40;97201.66;5084834;28;20315;-75
2022/10/17 07:21:07;;;;;;;;;;;;;;;14.98;92.57;97204.34;5093795;28;19964;-75
2022/10/17 07:23:35;;;;;;;;;;;;;;;15.08;92.04;97209.06;5093883;28;19958;-75
2022/10/17 07:26:06;;;;;;;;;;;;;;;15.18;90.89;97204.00;5093542;28;19949;-75
2022/10/17 07:28:33;;;;;;;;;;;;;;;15.28;90.75;97212.19;5093625;28;19968;-75
2022/10/17 07:31:03;;;;;;;;;;;;;;;15.36;90.73;97205.75;5094993;28;19951;-75
2022/10/17 07:33:29;;;;;;;;;;;;;;;15.42;91.55;97221.50;5097737;28;20346;-75
2022/10/17 07:35:57;;;;;;;;;;;;;;;15.50;91.46;97222.22;5097025;28;19959;-75
2022/10/17 07:38:23;;;;;;;;;;;;;;;15.57;90.87;97215.75;5097998;28;19943;-75
2022/10/17 07:40:56;;;;;;;;;;;;;;;15.62;91.28;97231.75;5097792;28;20004;-76
2022/10/17 07:43:22;;;;;;;;;;;;;;;15.71;92.85;97239.34;5085266;28;19959;-75
2022/10/17 07:45:48;;;;;;;;;;;;;;;15.79;92.63;97228.41;5097636;28;19949;-75
2022/10/17 07:48:14;;;;;;;;;;;;;;;15.86;90.82;97218.53;5097391;28;19975;-75
2022/10/17 07:50:40;;;;;;;;;;;;;;;15.92;92.44;97230.03;5097815;28;19962;-76
2022/10/17 07:53:06;;;;;;;;;;;;;;;15.95;91.28;97222.41;5097403;28;19959;-75
2022/10/17 07:55:32;;;;;;;;;;;;;;;15.97;91.02;97222.97;5097246;28;19947;-75
2022/10/17 07:57:59;;;;;;;;;;;;;;;16.02;90.28;97223.09;5096330;28;20398;-76
2022/10/17 08:00:25;;;;;;;;;;;;;;;16.06;90.37;97230.56;5097351;28;20301;-75
2022/10/17 08:02:51;;;;;;;;;;;;;;;16.09;90.00;97230.91;5097318;28;19957;-75
2022/10/17 08:05:17;;;;;;;;;;;;;;;16.15;89.34;97226.53;5097099;28;19999;-76
2022/10/17 08:07:43;;;;;;;;;;;;;;;16.21;87.54;97215.81;5097222;28;19965;-76
2022/10/17 08:10:11;;;;;;;;;;;;;;;16.30;88.76;97226.81;5097219;28;19977;-75
2022/10/17 08:12:37;;;;;;;;;;;;;;;16.34;87.07;97217.38;5097025;28;19955;-75
2022/10/17 08:15:03;;;;;;;;;;;;;;;16.31;88.08;97222.31;5096947;28;20429;-75
2022/10/17 08:17:29;;;;;;;;;;;;;;;16.29;87.08;97213.81;5095852;28;19953;-75
2022/10/17 08:19:55;;;;;;;;;;;;;;;16.33;88.98;97230.84;5096631;28;19984;-75
2022/10/17 08:22:21;;;;;;;;;;;;;;;16.38;89.28;97239.69;5097184;28;19959;-75
2022/10/17 08:24:47;;;;;;;;;;;;;;;16.43;88.83;97231.84;5096809;28;19968;-75
2022/10/17 08:27:13;;;;;;;;;;;;;;;16.48;88.97;97235.63;5095295;28;20022;-75
2022/10/17 08:29:39;;;;;;;;;;;;;;;16.51;87.37;97219.28;5096573;28;19959;-75
2022/10/17 08:32:06;;;;;;;;;;;;;;;16.55;86.39;97220.41;5096777;28;19956;-75
2022/10/17 08:34:32;;;;;;;;;;;;;;;16.62;85.50;97210.47;5096709;28;20420;-75
2022/10/17 08:36:58;;;;;;;;;;;;;;;16.70;85.51;97217.22;5096490;28;19952;-75
2022/10/17 08:39:24;;;;;;;;;;;;;;;16.81;86.93;97224.34;5096573;28;20306;-75
2022/10/17 08:42:01;;;;;;;;;;;;;;;16.91;86.33;97223.72;5095361;28;19998;-75
2022/10/17 08:44:46;;;;;;;;;;;;;;;17.02;84.91;97225.50;5096364;28;19948;-75
2022/10/17 08:47:15;;;;;;;;;;;;;;;17.12;85.23;97220.34;5096120;28;19961;-75
2022/10/17 08:49:41;;;;;;;;;;;;;;;17.23;85.52;97223.97;5096673;28;20316;-75
2022/10/17 08:52:14;;;;;;;;;;;;;;;17.28;85.09;97218.72;5096342;28;19958;-75
2022/10/17 08:54:42;;;;;;;;;;;;;;;17.34;84.99;97222.28;5096183;28;20298;-75
2022/10/17 08:57:13;;;;;;;;;;;;;;;17.37;84.30;97225.25;5095998;28;19963;-75
2022/10/17 08:59:39;;;;;;;;;;;;;;;17.30;81.13;97198.09;5096753;28;19951;-76
2022/10/17 09:02:07;;;;;;;;;;;;;;;17.26;83.55;97220.84;5096022;28;19952;-75
2022/10/17 09:04:57;;;;;;;;;;;;;;;17.27;83.37;97216.34;5096243;28;19955;-75
2022/10/17 09:07:29;;;;;;;;;;;;;;;17.33;84.82;97232.09;5088047;28;19968;-75
2022/10/17 09:10:04;;;;;;;;;;;;;;;17.42;84.75;97227.97;5096199;28;19953;-75
2022/10/17 09:12:37;;;;;;;;;;;;;;;17.50;84.66;97216.16;5095767;28;19954;-75
2022/10/17 09:15:21;;;;;;;;;;;;;;;17.56;84.39;97217.84;5095716;28;19955;-75
2022/10/17 09:17:59;;;;;;;;;;;;;;;17.63;85.14;97225.63;5095403;28;19976;-75
2022/10/17 09:20:37;;;;;;;;;;;;;;;17.73;84.59;97224.97;5087368;28;19962;-75
2022/10/17 09:23:05;;;;;;;;;;;;;;;17.75;82.27;97213.06;5087456;28;19955;-75
2022/10/17 09:25:38;;;;;;;;;;;;;;;17.73;81.64;97203.75;5095637;28;20417;-75
2022/10/17 09:28:20;;;;;;;;;;;;;;;17.75;84.65;97228.97;5095561;28;20344;-75
2022/10/17 09:30:54;;;;;;;;;;;;;;;17.80;84.51;97223.72;5095602;28;20421;-75
2022/10/17 09:33:24;;;;;;;;;;;;;;;17.81;83.41;97217.41;5095642;28;19949;-75
2022/10/17 09:35:50;;;;;;;;;;;;;;;17.84;84.22;97224.09;5095767;28;19952;-75
2022/10/17 09:38:18;;;;;;;;;;;;;;;17.86;83.95;97216.69;5095537;28;20367;-75
2022/10/17 09:40:53;;;;;;;;;;;;;;;17.93;83.56;97211.19;5095400;28;19956;-75
2022/10/17 09:43:19;;;;;;;;;;;;;;;18.01;83.40;97211.56;5095656;28;19951;-73
2022/10/17 09:46:12;;;;;;;;;;;;;;;18.08;85.52;97235.28;5095368;28;19950;-72
2022/10/17 09:48:49;;;;;;;;;;;;;;;18.17;84.11;97220.53;5071480;28;19968;-72
2022/10/17 09:51:15;;;;;;;;;;;;;;;18.23;83.28;97219.53;5095351;28;19963;-75
2022/10/17 09:53:44;;;;;;;;;;;;;;;18.25;82.35;97206.03;5094026;28;19963;-75
2022/10/17 09:56:12;;;;;;;;;;;;;;;18.25;82.25;97219.31;5095240;28;19974;-75
2022/10/17 09:58:53;;;;;;;;;;;;;;;18.24;84.58;97237.06;5094823;28;19953;-75
2022/10/17 10:01:29;;;;;;;;;;;;;;;18.28;82.14;97216.13;5094841;28;19953;-76
2022/10/17 10:04:09;;;;;;;;;;;;;;;18.35;84.05;97234.53;5095483;28;19957;-75
2022/10/17 10:06:35;;;;;;;;;;;;;;;18.45;83.91;97230.13;5095083;28;19958;-75
2022/10/17 10:09:04;;;;;;;;;;;;;;;18.55;82.70;97223.34;5094553;28;19978;-75
2022/10/17 10:11:48;;;;;;;;;;;;;;;18.62;82.52;97226.59;5094641;28;19949;-75
2022/10/17 10:14:20;;;;;;;;;;;;;;;18.67;81.60;97221.34;5094708;28;19952;-75
2022/10/17 10:16:47;;;;;;;;;;;;;;;18.68;80.73;97217.63;5081528;28;20088;-75
2022/10/17 10:19:25;;;;;;;;;;;;;;;18.68;83.30;97236.22;5094618;28;19972;-75
2022/10/17 10:21:55;;;;;;;;;;;;;;;18.78;84.47;97239.00;5083019;28;19958;-75
2022/10/17 10:24:22;;;;;;;;;;;;;;;18.92;81.64;97218.16;5094338;28;19950;-75
2022/10/17 10:26:49;;;;;;;;;;;;;;;19.03;81.70;97214.53;5094868;28;19953;-75
2022/10/17 10:29:23;;;;;;;;;;;;;;;19.13;79.94;97207.69;5094483;28;20065;-75
2022/10/17 10:31:50;;;;;;;;;;;;;;;19.24;80.49;97214.69;5094230;28;19947;-75
2022/10/17 10:34:19;;;;;;;;;;;;;;;19.33;80.19;97209.69;5094250;28;19956;-75
2022/10/17 10:36:48;;;;;;;;;;;;;;;19.42;80.63;97219.63;5094591;28;20325;-75
2022/10/17 10:39:21;;;;;;;;;;;;;;;19.50;80.02;97206.88;5094746;28;19955;-75
2022/10/17 10:41:47;;;;;;;;;;;;;;;19.53;79.14;97209.03;5094274;28;19960;-75
2022/10/17 10:44:15;;;;;;;;;;;;;;;19.59;80.36;97218.66;5094829;28;20304;-75
2022/10/17 10:46:40;;;;;;;;;;;;;;;19.65;78.93;97210.47;5094335;28;19951;-74
2022/10/17 10:49:26;;;;;;;;;;;;;;;19.73;77.55;97187.91;5094514;28;19990;-74
2022/10/17 10:51:52;;;;;;;;;;;;;;;19.89;79.33;97211.94;5082290;28;19971;-75
2022/10/17 10:54:21;;;;;;;;;;;;;;;20.03;78.29;97197.06;5094566;28;20062;-75
2022/10/17 10:56:51;;;;;;;;;;;;;;;20.12;77.89;97192.88;5094097;28;19960;-75
2022/10/17 10:59:36;;;;;;;;;;;;;;;20.31;77.89;97195.88;5094132;28;19957;-75
2022/10/17 11:02:18;;;;;;;;;;;;;;;20.48;75.46;97177.00;5087112;28;20047;-75
2022/10/17 11:04:43;;;;;;;;;;;;;;;20.65;76.56;97192.78;5094247;28;20331;-75
2022/10/17 11:07:18;;;;;;;;;;;;;;;20.79;74.44;97174.38;5093937;28;19949;-75
2022/10/17 11:09:52;;;;;;;;;;;;;;;20.91;74.55;97172.25;5093835;28;19955;-75
2022/10/17 11:12:27;;;;;;;;;;;;;;;21.12;73.77;97166.94;5093804;28;19954;-76
2022/10/17 11:15:08;;;;;;;;;;;;;;;21.33;74.82;97173.84;5094377;28;19953;-75
2022/10/17 11:17:55;;;;;;;;;;;;;;;21.56;75.60;97180.50;5094161;28;19954;-75
2022/10/17 11:20:24;;;;;;;;;;;;;;;21.78;74.96;97172.19;5093925;28;19962;-75
2022/10/17 11:22:53;;;;;;;;;;;;;;;21.93;70.52;97141.94;5093085;28;19965;-75
2022/10/17 11:25:35;;;;;;;;;;;;;;;22.03;70.71;97139.22;5094148;28;19949;-75
2022/10/17 11:28:03;;;;;;;;;;;;;;;22.18;71.79;97146.38;5093862;28;19970;-75
2022/10/17 11:30:35;;;;;;;;;;;;;;;22.32;67.30;97111.81;5093639;28;20416;-74
2022/10/17 11:33:02;;;;;;;;;;;;;;;22.44;69.81;97136.34;5092491;28;20345;-75
2022/10/17 11:35:34;;;;;;;;;;;;;;;22.56;68.01;97143.25;5094125;28;19954;-75
2022/10/17 11:38:16;;;;;;;;;;;;;;;22.59;64.69;97124.75;5093518;28;19973;-75
2022/10/17 11:40:44;;;;;;;;;;;;;;;22.68;66.80;97138.34;5093611;28;19954;-75
2022/10/17 11:43:25;;;;;;;;;;;;;;;22.80;67.58;97148.66;5093514;28;20337;-74
2022/10/17 11:45:54;;;;;;;;;;;;;;;22.91;64.95;97128.81;5093342;28;19957;-74
2022/10/17 11:48:26;;;;;;;;;;;;;;;22.99;65.07;97154.91;5093426;28;19972;-73
2022/10/17 11:51:08;;;;;;;;;;;;;;;23.03;61.93;97155.19;5093353;28;19956;-73
2022/10/17 11:53:49;;;;;;;;;;;;;;;23.09;63.37;97168.25;5093643;28;19950;-73
2022/10/17 11:56:24;;;;;;;;;;;;;;;23.12;59.87;97155.38;5093460;28;19949;-74
2022/10/17 11:58:50;;;;;;;;;;;;;;;23.20;56.10;97174.28;5093372;28;20421;-74
2022/10/17 12:01:23;;;;;;;;;;;;;;;23.29;50.88;97166.47;5093938;28;19945;-73
2022/10/17 12:03:49;;;;;;;;;;;;;;;23.37;49.85;97191.81;5093444;28;20346;-74
2022/10/17 12:06:30;;;;;;;;;;;;;;;23.43;52.64;97206.75;5093538;28;19952;-74
2022/10/17 12:09:14;;;;;;;;;;;;;;;23.42;53.47;97200.59;5093340;28;19968;-73
2022/10/17 12:11:52;;;;;;;;;;;;;;;23.50;50.23;97200.00;5093424;28;20436;-73
2022/10/17 12:14:37;;;;;;;;;;;;;;;23.55;52.36;97207.16;5092662;28;19957;-74
2022/10/17 12:17:04;;;;;;;;;;;;;;;23.60;51.57;97204.47;5094704;28;20396;-74
2022/10/17 12:19:32;;;;;;;;;;;;;;;23.60;49.17;97200.97;5096958;28;19977;-73
2022/10/17 12:22:19;;;;;;;;;;;;;;;23.63;56.72;97213.81;5096999;28;19949;-74
2022/10/17 12:24:59;;;;;;;;;;;;;;;23.66;51.71;97218.56;5096784;28;20393;-74
2022/10/17 12:27:33;;;;;;;;;;;;;;;23.70;53.95;97209.69;5096843;28;20400;-73
2022/10/17 12:30:13;;;;;;;;;;;;;;;23.74;50.54;97207.25;5096768;28;19953;-74
2022/10/17 12:33:03;;;;;;;;;;;;;;;23.76;48.17;97201.63;5096849;28;19951;-74
2022/10/17 12:35:30;;;;;;;;;;;;;;;23.77;48.93;97208.59;5088601;28;20409;-74
2022/10/17 12:38:12;;;;;;;;;;;;;;;23.79;47.14;97195.72;5096459;28;19956;-73
2022/10/17 12:40:42;;;;;;;;;;;;;;;23.79;49.07;97193.84;5096795;28;20438;-74
2022/10/17 12:43:14;;;;;;;;;;;;;;;23.85;50.50;97199.94;5096885;28;20361;-74
2022/10/17 12:45:50;;;;;;;;;;;;;;;23.92;49.80;97195.03;5096450;28;19948;-74
2022/10/17 12:48:34;;;;;;;;;;;;;;;23.95;48.09;97191.78;5096412;28;20422;-74
2022/10/17 12:51:00;;;;;;;;;;;;;;;23.99;50.78;97192.81;5096450;28;20481;-74
2022/10/17 12:53:45;;;;;;;;;;;;;;;23.97;46.45;97192.28;5096286;28;19945;-74